CheckWX is a tool to help pilots better visualize weather data.  It is not intended as a substitute for an official pre-flight weather briefing.

15:04:55 UTC

LGKC METAR
Kithira Airport
Kithira Island, Greece
Current

15 mins ago

LGKC 101450Z 04011KT 9999 FEW011 25/21 Q1015
Observed
Jul-10 @ 14:50 UTC
Wind
  • 040° at 11 KTS
Visibility
10,000+ meters
Flight Rules
VFR
Cloud Levels
  • Few at 1,100' AGL
Temperature
25°C / 77°F
Dewpoint
21°C / 70°F
Humidity
79%
Altimeter
29.97" Hg
Pressure
1014.92 hPa
Previous

1 hour ago

LGKC 101350Z 05011KT 9999 FEW011 25/21 Q1015
Observed
Jul-10 @ 13:50 UTC
Wind
  • 050° at 11 KTS
Visibility
10,000+ meters
Flight Rules
VFR
Cloud Levels
  • Few at 1,100' AGL
Temperature
25°C / 77°F
Dewpoint
21°C / 70°F
Humidity
79%
Altimeter
29.97" Hg
Pressure
1014.92 hPa
Previous

2 hours ago

LGKC 101250Z 07012KT 9999 FEW011 25/21 Q1015
Observed
Jul-10 @ 12:50 UTC
Wind
  • 070° at 12 KTS
Visibility
10,000+ meters
Flight Rules
VFR
Cloud Levels
  • Few at 1,100' AGL
Temperature
25°C / 77°F
Dewpoint
21°C / 70°F
Humidity
79%
Altimeter
29.97" Hg
Pressure
1014.92 hPa